sensor_id;sensor_type;location;lat;lon;timestamp;temperature;humidity
61807;DHT22;47726;52.766;6.606;2023-05-07T00:00:18;15.00;99.90
61807;DHT22;47726;52.766;6.606;2023-05-07T00:02:46;15.00;99.90
61807;DHT22;47726;52.766;6.606;2023-05-07T00:05:13;15.00;99.90
61807;DHT22;47726;52.766;6.606;2023-05-07T00:07:38;15.00;99.90
61807;DHT22;47726;52.766;6.606;2023-05-07T00:10:04;14.90;99.90
61807;DHT22;47726;52.766;6.606;2023-05-07T00:12:32;14.90;99.90
61807;DHT22;47726;52.766;6.606;2023-05-07T00:15:00;14.90;99.90
61807;DHT22;47726;52.766;6.606;2023-05-07T00:17:25;14.90;99.90
61807;DHT22;47726;52.766;6.606;2023-05-07T00:19:51;14.90;99.90
61807;DHT22;47726;52.766;6.606;2023-05-07T00:22:16;14.90;99.90
61807;DHT22;47726;52.766;6.606;2023-05-07T00:24:42;14.90;99.90
61807;DHT22;47726;52.766;6.606;2023-05-07T00:27:08;14.80;99.90
61807;DHT22;47726;52.766;6.606;2023-05-07T00:29:34;14.90;99.90
61807;DHT22;47726;52.766;6.606;2023-05-07T00:31:59;14.80;99.90
61807;DHT22;47726;52.766;6.606;2023-05-07T00:34:25;14.90;99.90
61807;DHT22;47726;52.766;6.606;2023-05-07T00:36:50;14.80;99.90
61807;DHT22;47726;52.766;6.606;2023-05-07T00:39:16;14.80;99.90
61807;DHT22;47726;52.766;6.606;2023-05-07T00:41:41;14.80;99.90
61807;DHT22;47726;52.766;6.606;2023-05-07T00:44:07;14.80;99.90
61807;DHT22;47726;52.766;6.606;2023-05-07T00:46:33;14.80;99.90
61807;DHT22;47726;52.766;6.606;2023-05-07T00:48:59;14.80;99.90
61807;DHT22;47726;52.766;6.606;2023-05-07T00:51:26;14.80;99.90
61807;DHT22;47726;52.766;6.606;2023-05-07T00:53:53;14.70;99.90
61807;DHT22;47726;52.766;6.606;2023-05-07T00:56:20;14.70;99.90
61807;DHT22;47726;52.766;6.606;2023-05-07T00:58:46;14.70;99.90
61807;DHT22;47726;52.766;6.606;2023-05-07T01:01:12;14.70;99.90
61807;DHT22;47726;52.766;6.606;2023-05-07T01:03:38;14.70;99.90
61807;DHT22;47726;52.766;6.606;2023-05-07T01:06:05;14.70;99.90
61807;DHT22;47726;52.766;6.606;2023-05-07T01:08:31;14.70;99.90
61807;DHT22;47726;52.766;6.606;2023-05-07T01:10:58;14.60;99.90
61807;DHT22;47726;52.766;6.606;2023-05-07T01:13:24;14.60;99.90
61807;DHT22;47726;52.766;6.606;2023-05-07T01:15:50;14.60;99.90
61807;DHT22;47726;52.766;6.606;2023-05-07T01:18:16;14.60;99.90
61807;DHT22;47726;52.766;6.606;2023-05-07T01:20:42;14.60;99.90
61807;DHT22;47726;52.766;6.606;2023-05-07T01:23:08;14.60;99.90
61807;DHT22;47726;52.766;6.606;2023-05-07T01:25:35;14.50;99.90
61807;DHT22;47726;52.766;6.606;2023-05-07T01:28:01;14.50;99.90
61807;DHT22;47726;52.766;6.606;2023-05-07T01:30:28;14.50;99.90
61807;DHT22;47726;52.766;6.606;2023-05-07T01:33:03;14.40;99.90
61807;DHT22;47726;52.766;6.606;2023-05-07T01:35:34;14.40;99.90
61807;DHT22;47726;52.766;6.606;2023-05-07T01:38:01;14.40;99.90
61807;DHT22;47726;52.766;6.606;2023-05-07T01:40:29;14.40;99.90
61807;DHT22;47726;52.766;6.606;2023-05-07T01:42:55;14.30;99.90
61807;DHT22;47726;52.766;6.606;2023-05-07T01:45:21;14.30;99.90
61807;DHT22;47726;52.766;6.606;2023-05-07T01:47:47;14.30;99.90
61807;DHT22;47726;52.766;6.606;2023-05-07T01:50:14;14.20;99.90
61807;DHT22;47726;52.766;6.606;2023-05-07T01:52:41;14.20;99.90
61807;DHT22;47726;52.766;6.606;2023-05-07T01:55:07;14.20;99.90
61807;DHT22;47726;52.766;6.606;2023-05-07T01:57:33;14.20;99.90
61807;DHT22;47726;52.766;6.606;2023-05-07T01:59:58;14.10;99.90
61807;DHT22;47726;52.766;6.606;2023-05-07T02:02:24;14.10;99.90
61807;DHT22;47726;52.766;6.606;2023-05-07T02:04:49;14.10;99.90
61807;DHT22;47726;52.766;6.606;2023-05-07T02:07:15;14.00;99.90
61807;DHT22;47726;52.766;6.606;2023-05-07T02:09:40;14.00;99.90
61807;DHT22;47726;52.766;6.606;2023-05-07T02:12:06;14.00;99.90
61807;DHT22;47726;52.766;6.606;2023-05-07T02:14:32;13.90;99.90
61807;DHT22;47726;52.766;6.606;2023-05-07T02:16:57;13.90;99.90
61807;DHT22;47726;52.766;6.606;2023-05-07T02:19:23;13.90;99.90
61807;DHT22;47726;52.766;6.606;2023-05-07T02:21:48;13.90;99.90
61807;DHT22;47726;52.766;6.606;2023-05-07T02:24:14;13.80;99.90
61807;DHT22;47726;52.766;6.606;2023-05-07T02:26:40;13.80;99.90
61807;DHT22;47726;52.766;6.606;2023-05-07T02:29:06;13.80;99.90
61807;DHT22;47726;52.766;6.606;2023-05-07T02:31:32;13.70;99.90
61807;DHT22;47726;52.766;6.606;2023-05-07T02:33:59;13.70;99.90
61807;DHT22;47726;52.766;6.606;2023-05-07T02:36:25;13.70;99.90
61807;DHT22;47726;52.766;6.606;2023-05-07T02:38:52;13.70;99.90
61807;DHT22;47726;52.766;6.606;2023-05-07T02:41:17;13.70;99.90
61807;DHT22;47726;52.766;6.606;2023-05-07T02:43:43;13.60;99.90
61807;DHT22;47726;52.766;6.606;2023-05-07T02:46:09;13.60;99.90
61807;DHT22;47726;52.766;6.606;2023-05-07T02:48:35;13.60;99.90
61807;DHT22;47726;52.766;6.606;2023-05-07T02:51:02;13.60;99.90
61807;DHT22;47726;52.766;6.606;2023-05-07T02:53:28;13.50;99.90
61807;DHT22;47726;52.766;6.606;2023-05-07T02:55:59;13.50;99.90
61807;DHT22;47726;52.766;6.606;2023-05-07T02:58:25;13.50;99.90
61807;DHT22;47726;52.766;6.606;2023-05-07T03:00:52;13.50;99.90
61807;DHT22;47726;52.766;6.606;2023-05-07T03:03:17;13.50;99.90
61807;DHT22;47726;52.766;6.606;2023-05-07T03:05:43;13.50;99.90
61807;DHT22;47726;52.766;6.606;2023-05-07T03:08:09;13.40;99.90
61807;DHT22;47726;52.766;6.606;2023-05-07T03:10:36;13.40;99.90
61807;DHT22;47726;52.766;6.606;2023-05-07T03:13:02;13.40;99.90
61807;DHT22;47726;52.766;6.606;2023-05-07T03:15:28;13.40;99.90
61807;DHT22;47726;52.766;6.606;2023-05-07T03:17:53;13.40;99.90
61807;DHT22;47726;52.766;6.606;2023-05-07T03:20:19;13.40;99.90
61807;DHT22;47726;52.766;6.606;2023-05-07T03:22:44;13.30;99.90
61807;DHT22;47726;52.766;6.606;2023-05-07T03:25:10;13.30;99.90
61807;DHT22;47726;52.766;6.606;2023-05-07T03:27:36;13.30;99.90
61807;DHT22;47726;52.766;6.606;2023-05-07T03:30:02;13.30;99.90
61807;DHT22;47726;52.766;6.606;2023-05-07T03:32:27;13.30;99.90
61807;DHT22;47726;52.766;6.606;2023-05-07T03:34:53;13.30;99.90
61807;DHT22;47726;52.766;6.606;2023-05-07T03:37:19;13.30;99.90
61807;DHT22;47726;52.766;6.606;2023-05-07T03:39:44;13.30;99.90
61807;DHT22;47726;52.766;6.606;2023-05-07T03:42:10;13.20;99.90
61807;DHT22;47726;52.766;6.606;2023-05-07T03:44:36;13.20;99.90
61807;DHT22;47726;52.766;6.606;2023-05-07T03:47:02;13.20;99.90
61807;DHT22;47726;52.766;6.606;2023-05-07T03:49:28;13.20;99.90
61807;DHT22;47726;52.766;6.606;2023-05-07T03:51:53;13.20;99.90
61807;DHT22;47726;52.766;6.606;2023-05-07T03:54:19;13.10;99.90
61807;DHT22;47726;52.766;6.606;2023-05-07T03:56:45;13.20;99.90
61807;DHT22;47726;52.766;6.606;2023-05-07T03:59:11;13.10;99.90
61807;DHT22;47726;52.766;6.606;2023-05-07T04:01:37;13.10;99.90
61807;DHT22;47726;52.766;6.606;2023-05-07T04:04:02;13.10;99.90
61807;DHT22;47726;52.766;6.606;2023-05-07T04:06:29;13.10;99.90
61807;DHT22;47726;52.766;6.606;2023-05-07T04:08:55;13.10;99.90
61807;DHT22;47726;52.766;6.606;2023-05-07T04:11:20;13.10;99.90
61807;DHT22;47726;52.766;6.606;2023-05-07T04:13:46;13.00;99.90
61807;DHT22;47726;52.766;6.606;2023-05-07T04:16:11;13.00;99.90
61807;DHT22;47726;52.766;6.606;2023-05-07T04:18:37;13.00;99.90
61807;DHT22;47726;52.766;6.606;2023-05-07T04:21:03;13.00;99.90
61807;DHT22;47726;52.766;6.606;2023-05-07T04:23:28;13.00;99.90
61807;DHT22;47726;52.766;6.606;2023-05-07T04:25:54;13.00;99.90
61807;DHT22;47726;52.766;6.606;2023-05-07T04:28:20;13.00;99.90
61807;DHT22;47726;52.766;6.606;2023-05-07T04:30:45;13.00;99.90
61807;DHT22;47726;52.766;6.606;2023-05-07T04:33:11;13.00;99.90
61807;DHT22;47726;52.766;6.606;2023-05-07T04:35:37;12.90;99.90
61807;DHT22;47726;52.766;6.606;2023-05-07T04:38:02;13.00;99.90
61807;DHT22;47726;52.766;6.606;2023-05-07T04:40:28;12.90;99.90
61807;DHT22;47726;52.766;6.606;2023-05-07T04:42:54;12.90;99.90
61807;DHT22;47726;52.766;6.606;2023-05-07T04:45:20;13.00;99.90
61807;DHT22;47726;52.766;6.606;2023-05-07T04:47:45;12.90;99.90
61807;DHT22;47726;52.766;6.606;2023-05-07T04:50:11;12.90;99.90
61807;DHT22;47726;52.766;6.606;2023-05-07T04:52:37;12.90;99.90
61807;DHT22;47726;52.766;6.606;2023-05-07T04:55:02;12.90;99.90
61807;DHT22;47726;52.766;6.606;2023-05-07T04:57:28;12.90;99.90
61807;DHT22;47726;52.766;6.606;2023-05-07T04:59:54;12.90;99.90
61807;DHT22;47726;52.766;6.606;2023-05-07T05:02:19;12.90;99.90
61807;DHT22;47726;52.766;6.606;2023-05-07T05:04:45;12.90;99.90
61807;DHT22;47726;52.766;6.606;2023-05-07T05:07:11;12.90;99.90
61807;DHT22;47726;52.766;6.606;2023-05-07T05:09:36;12.90;99.90
61807;DHT22;47726;52.766;6.606;2023-05-07T05:12:02;12.90;99.90
61807;DHT22;47726;52.766;6.606;2023-05-07T05:14:27;12.90;99.90
61807;DHT22;47726;52.766;6.606;2023-05-07T05:16:53;12.90;99.90
61807;DHT22;47726;52.766;6.606;2023-05-07T05:19:18;13.00;99.90
61807;DHT22;47726;52.766;6.606;2023-05-07T05:21:44;12.90;99.90
61807;DHT22;47726;52.766;6.606;2023-05-07T05:24:10;13.00;99.90
61807;DHT22;47726;52.766;6.606;2023-05-07T05:26:35;13.00;99.90
61807;DHT22;47726;52.766;6.606;2023-05-07T05:29:01;13.00;99.90
61807;DHT22;47726;52.766;6.606;2023-05-07T05:31:26;13.00;99.90
61807;DHT22;47726;52.766;6.606;2023-05-07T05:33:52;13.00;99.90
61807;DHT22;47726;52.766;6.606;2023-05-07T05:36:17;13.00;99.90
61807;DHT22;47726;52.766;6.606;2023-05-07T05:38:43;13.00;99.90
61807;DHT22;47726;52.766;6.606;2023-05-07T05:41:09;13.00;99.90
61807;DHT22;47726;52.766;6.606;2023-05-07T05:43:35;13.00;99.90
61807;DHT22;47726;52.766;6.606;2023-05-07T05:46:01;13.00;99.90
61807;DHT22;47726;52.766;6.606;2023-05-07T05:48:28;13.00;99.90
61807;DHT22;47726;52.766;6.606;2023-05-07T05:50:54;13.00;99.90
61807;DHT22;47726;52.766;6.606;2023-05-07T05:53:19;13.10;99.90
61807;DHT22;47726;52.766;6.606;2023-05-07T05:55:45;13.10;99.90
61807;DHT22;47726;52.766;6.606;2023-05-07T05:58:11;13.10;99.90
61807;DHT22;47726;52.766;6.606;2023-05-07T06:00:36;13.10;99.90
61807;DHT22;47726;52.766;6.606;2023-05-07T06:03:02;13.10;99.90
61807;DHT22;47726;52.766;6.606;2023-05-07T06:05:28;13.10;99.90
61807;DHT22;47726;52.766;6.606;2023-05-07T06:07:53;13.10;99.90
61807;DHT22;47726;52.766;6.606;2023-05-07T06:10:19;13.10;99.90
61807;DHT22;47726;52.766;6.606;2023-05-07T06:12:44;13.10;99.90
61807;DHT22;47726;52.766;6.606;2023-05-07T06:15:10;13.10;99.90
61807;DHT22;47726;52.766;6.606;2023-05-07T06:17:36;13.10;99.90
61807;DHT22;47726;52.766;6.606;2023-05-07T06:20:01;13.10;99.90
61807;DHT22;47726;52.766;6.606;2023-05-07T06:22:27;13.10;99.90
61807;DHT22;47726;52.766;6.606;2023-05-07T06:24:52;13.10;99.90
61807;DHT22;47726;52.766;6.606;2023-05-07T06:27:18;13.10;99.90
61807;DHT22;47726;52.766;6.606;2023-05-07T06:29:43;13.10;99.90
61807;DHT22;47726;52.766;6.606;2023-05-07T06:32:11;13.10;99.90
61807;DHT22;47726;52.766;6.606;2023-05-07T06:34:37;13.10;99.90
61807;DHT22;47726;52.766;6.606;2023-05-07T06:37:03;13.10;99.90
61807;DHT22;47726;52.766;6.606;2023-05-07T06:39:29;13.10;99.90
61807;DHT22;47726;52.766;6.606;2023-05-07T06:41:57;13.10;99.90
61807;DHT22;47726;52.766;6.606;2023-05-07T06:44:22;13.10;99.90
61807;DHT22;47726;52.766;6.606;2023-05-07T06:46:48;13.10;99.90
61807;DHT22;47726;52.766;6.606;2023-05-07T06:49:14;13.20;99.90
61807;DHT22;47726;52.766;6.606;2023-05-07T06:51:40;13.20;99.90
61807;DHT22;47726;52.766;6.606;2023-05-07T06:54:05;13.20;99.90
61807;DHT22;47726;52.766;6.606;2023-05-07T06:56:31;13.20;99.90
61807;DHT22;47726;52.766;6.606;2023-05-07T06:58:57;13.20;99.90
61807;DHT22;47726;52.766;6.606;2023-05-07T07:01:23;13.30;99.90
61807;DHT22;47726;52.766;6.606;2023-05-07T07:03:48;13.30;99.90
61807;DHT22;47726;52.766;6.606;2023-05-07T07:06:14;13.30;99.90
61807;DHT22;47726;52.766;6.606;2023-05-07T07:08:40;13.40;99.90
61807;DHT22;47726;52.766;6.606;2023-05-07T07:11:06;13.40;99.90
61807;DHT22;47726;52.766;6.606;2023-05-07T07:13:31;13.50;99.90
61807;DHT22;47726;52.766;6.606;2023-05-07T07:15:57;13.50;99.90
61807;DHT22;47726;52.766;6.606;2023-05-07T07:18:23;13.70;99.90
61807;DHT22;47726;52.766;6.606;2023-05-07T07:20:49;13.80;99.90
61807;DHT22;47726;52.766;6.606;2023-05-07T07:23:14;13.80;99.90
61807;DHT22;47726;52.766;6.606;2023-05-07T07:25:40;13.90;99.90
61807;DHT22;47726;52.766;6.606;2023-05-07T07:28:06;13.90;99.90
61807;DHT22;47726;52.766;6.606;2023-05-07T07:30:32;14.00;99.90
61807;DHT22;47726;52.766;6.606;2023-05-07T07:32:57;14.10;99.90
61807;DHT22;47726;52.766;6.606;2023-05-07T07:35:34;14.20;99.90
61807;DHT22;47726;52.766;6.606;2023-05-07T07:38:00;14.20;99.90
61807;DHT22;47726;52.766;6.606;2023-05-07T07:40:25;14.30;99.90
61807;DHT22;47726;52.766;6.606;2023-05-07T07:42:52;14.30;99.90
61807;DHT22;47726;52.766;6.606;2023-05-07T07:45:17;14.40;99.90
61807;DHT22;47726;52.766;6.606;2023-05-07T07:47:43;14.40;99.90
61807;DHT22;47726;52.766;6.606;2023-05-07T07:50:09;14.50;99.90
61807;DHT22;47726;52.766;6.606;2023-05-07T07:52:35;14.60;99.90
61807;DHT22;47726;52.766;6.606;2023-05-07T07:55:01;14.70;99.90
61807;DHT22;47726;52.766;6.606;2023-05-07T07:57:27;14.80;99.90
61807;DHT22;47726;52.766;6.606;2023-05-07T07:59:52;14.90;99.90
61807;DHT22;47726;52.766;6.606;2023-05-07T08:02:18;15.10;99.90
61807;DHT22;47726;52.766;6.606;2023-05-07T08:04:44;15.20;99.90
61807;DHT22;47726;52.766;6.606;2023-05-07T08:07:10;15.40;99.90
61807;DHT22;47726;52.766;6.606;2023-05-07T08:09:37;15.50;99.90
61807;DHT22;47726;52.766;6.606;2023-05-07T08:12:03;15.60;99.90
61807;DHT22;47726;52.766;6.606;2023-05-07T08:14:29;15.70;99.90
61807;DHT22;47726;52.766;6.606;2023-05-07T08:16:55;15.80;99.90
61807;DHT22;47726;52.766;6.606;2023-05-07T08:19:20;15.90;99.90
61807;DHT22;47726;52.766;6.606;2023-05-07T08:21:47;15.90;99.90
61807;DHT22;47726;52.766;6.606;2023-05-07T08:24:14;15.90;99.90
61807;DHT22;47726;52.766;6.606;2023-05-07T08:26:39;15.90;99.90
61807;DHT22;47726;52.766;6.606;2023-05-07T08:29:05;15.90;99.90
61807;DHT22;47726;52.766;6.606;2023-05-07T08:31:31;15.90;99.90
61807;DHT22;47726;52.766;6.606;2023-05-07T08:33:57;15.90;99.90
61807;DHT22;47726;52.766;6.606;2023-05-07T08:36:23;15.90;99.90
61807;DHT22;47726;52.766;6.606;2023-05-07T08:38:49;15.90;99.90
61807;DHT22;47726;52.766;6.606;2023-05-07T08:41:15;15.90;99.90
61807;DHT22;47726;52.766;6.606;2023-05-07T08:43:41;15.90;99.90
61807;DHT22;47726;52.766;6.606;2023-05-07T08:46:09;15.90;99.90
61807;DHT22;47726;52.766;6.606;2023-05-07T08:48:37;16.00;99.90
61807;DHT22;47726;52.766;6.606;2023-05-07T08:51:03;16.10;99.90
61807;DHT22;47726;52.766;6.606;2023-05-07T08:53:29;16.20;99.90
61807;DHT22;47726;52.766;6.606;2023-05-07T08:55:54;16.30;99.90
61807;DHT22;47726;52.766;6.606;2023-05-07T08:58:20;16.30;99.90
61807;DHT22;47726;52.766;6.606;2023-05-07T09:00:47;16.40;99.90
61807;DHT22;47726;52.766;6.606;2023-05-07T09:03:12;16.50;99.90
61807;DHT22;47726;52.766;6.606;2023-05-07T09:05:39;16.60;99.90
61807;DHT22;47726;52.766;6.606;2023-05-07T09:08:07;16.80;99.90
61807;DHT22;47726;52.766;6.606;2023-05-07T09:10:33;16.90;99.90
61807;DHT22;47726;52.766;6.606;2023-05-07T09:12:59;17.10;99.90
61807;DHT22;47726;52.766;6.606;2023-05-07T09:15:26;17.30;99.90
61807;DHT22;47726;52.766;6.606;2023-05-07T09:17:52;17.50;99.90
61807;DHT22;47726;52.766;6.606;2023-05-07T09:20:18;17.80;99.90
61807;DHT22;47726;52.766;6.606;2023-05-07T09:22:43;17.90;99.90
61807;DHT22;47726;52.766;6.606;2023-05-07T09:25:09;18.20;99.90
61807;DHT22;47726;52.766;6.606;2023-05-07T09:27:35;18.30;99.90
61807;DHT22;47726;52.766;6.606;2023-05-07T09:30:08;18.50;99.90
61807;DHT22;47726;52.766;6.606;2023-05-07T09:32:37;18.60;99.90
61807;DHT22;47726;52.766;6.606;2023-05-07T09:35:06;18.70;99.90
61807;DHT22;47726;52.766;6.606;2023-05-07T09:37:32;18.80;99.90
61807;DHT22;47726;52.766;6.606;2023-05-07T09:39:58;19.00;99.90
61807;DHT22;47726;52.766;6.606;2023-05-07T09:42:24;19.10;99.90
61807;DHT22;47726;52.766;6.606;2023-05-07T09:44:50;19.30;99.90
61807;DHT22;47726;52.766;6.606;2023-05-07T09:47:19;19.40;99.90
61807;DHT22;47726;52.766;6.606;2023-05-07T09:49:47;19.50;99.90
61807;DHT22;47726;52.766;6.606;2023-05-07T09:52:14;19.60;99.90
61807;DHT22;47726;52.766;6.606;2023-05-07T09:54:40;19.80;99.90
61807;DHT22;47726;52.766;6.606;2023-05-07T09:57:10;19.90;99.90
61807;DHT22;47726;52.766;6.606;2023-05-07T09:59:37;20.00;99.90
61807;DHT22;47726;52.766;6.606;2023-05-07T10:02:04;20.10;99.90
61807;DHT22;47726;52.766;6.606;2023-05-07T10:04:31;20.10;99.90
61807;DHT22;47726;52.766;6.606;2023-05-07T10:06:57;20.10;99.90
61807;DHT22;47726;52.766;6.606;2023-05-07T10:09:25;20.20;99.90
61807;DHT22;47726;52.766;6.606;2023-05-07T10:11:51;20.30;99.90
61807;DHT22;47726;52.766;6.606;2023-05-07T10:14:17;20.40;99.90
61807;DHT22;47726;52.766;6.606;2023-05-07T10:16:43;20.40;99.90
61807;DHT22;47726;52.766;6.606;2023-05-07T10:19:09;20.50;99.90
61807;DHT22;47726;52.766;6.606;2023-05-07T10:21:42;20.60;99.90
61807;DHT22;47726;52.766;6.606;2023-05-07T10:24:16;20.70;99.90
61807;DHT22;47726;52.766;6.606;2023-05-07T10:26:48;20.90;99.90
61807;DHT22;47726;52.766;6.606;2023-05-07T10:29:21;21.00;99.90
61807;DHT22;47726;52.766;6.606;2023-05-07T10:34:43;21.20;99.90
61807;DHT22;47726;52.766;6.606;2023-05-07T10:37:11;21.30;99.90
61807;DHT22;47726;52.766;6.606;2023-05-07T10:39:37;21.30;99.90
61807;DHT22;47726;52.766;6.606;2023-05-07T10:42:10;21.30;99.90
61807;DHT22;47726;52.766;6.606;2023-05-07T10:44:36;21.40;99.90
61807;DHT22;47726;52.766;6.606;2023-05-07T10:47:16;21.40;99.90
61807;DHT22;47726;52.766;6.606;2023-05-07T10:52:23;21.40;99.90
61807;DHT22;47726;52.766;6.606;2023-05-07T10:57:46;21.40;99.90
61807;DHT22;47726;52.766;6.606;2023-05-07T11:05:32;21.60;99.90
61807;DHT22;47726;52.766;6.606;2023-05-07T11:08:00;21.70;99.90
61807;DHT22;47726;52.766;6.606;2023-05-07T11:10:55;21.70;99.90
61807;DHT22;47726;52.766;6.606;2023-05-07T11:13:44;21.80;99.90
61807;DHT22;47726;52.766;6.606;2023-05-07T11:16:24;21.80;99.90
61807;DHT22;47726;52.766;6.606;2023-05-07T11:18:54;21.90;99.90
61807;DHT22;47726;52.766;6.606;2023-05-07T11:23:58;22.00;99.90
61807;DHT22;47726;52.766;6.606;2023-05-07T11:26:25;22.10;99.90
61807;DHT22;47726;52.766;6.606;2023-05-07T11:28:51;22.10;99.90
61807;DHT22;47726;52.766;6.606;2023-05-07T11:31:21;22.20;99.90
61807;DHT22;47726;52.766;6.606;2023-05-07T11:33:48;22.20;99.90
61807;DHT22;47726;52.766;6.606;2023-05-07T11:36:15;22.10;99.90
61807;DHT22;47726;52.766;6.606;2023-05-07T11:38:41;22.10;99.90
61807;DHT22;47726;52.766;6.606;2023-05-07T11:41:07;22.10;99.90
61807;DHT22;47726;52.766;6.606;2023-05-07T11:43:33;22.10;99.90
61807;DHT22;47726;52.766;6.606;2023-05-07T11:46:11;22.10;99.90
61807;DHT22;47726;52.766;6.606;2023-05-07T11:48:37;22.10;99.90
61807;DHT22;47726;52.766;6.606;2023-05-07T11:51:07;22.10;99.90
61807;DHT22;47726;52.766;6.606;2023-05-07T11:53:38;22.10;99.90
61807;DHT22;47726;52.766;6.606;2023-05-07T11:56:12;22.10;99.90
61807;DHT22;47726;52.766;6.606;2023-05-07T11:58:40;22.10;99.90
61807;DHT22;47726;52.766;6.606;2023-05-07T12:01:08;22.20;99.90
61807;DHT22;47726;52.766;6.606;2023-05-07T12:03:41;22.10;99.90
61807;DHT22;47726;52.766;6.606;2023-05-07T12:06:15;22.10;99.90
61807;DHT22;47726;52.766;6.606;2023-05-07T12:08:41;22.10;99.90
61807;DHT22;47726;52.766;6.606;2023-05-07T12:11:13;22.10;99.90
61807;DHT22;47726;52.766;6.606;2023-05-07T12:13:40;22.10;99.90
61807;DHT22;47726;52.766;6.606;2023-05-07T12:16:07;22.10;99.90
61807;DHT22;47726;52.766;6.606;2023-05-07T12:18:34;22.10;99.90
61807;DHT22;47726;52.766;6.606;2023-05-07T12:21:00;22.00;99.90
61807;DHT22;47726;52.766;6.606;2023-05-07T12:23:26;22.00;99.90
61807;DHT22;47726;52.766;6.606;2023-05-07T12:25:52;22.00;99.90
61807;DHT22;47726;52.766;6.606;2023-05-07T12:28:19;22.00;99.90
61807;DHT22;47726;52.766;6.606;2023-05-07T12:30:46;21.90;99.90
61807;DHT22;47726;52.766;6.606;2023-05-07T12:33:16;21.90;99.90
61807;DHT22;47726;52.766;6.606;2023-05-07T12:35:42;21.80;99.90
61807;DHT22;47726;52.766;6.606;2023-05-07T12:38:10;21.70;99.90
61807;DHT22;47726;52.766;6.606;2023-05-07T12:40:46;21.60;99.90
61807;DHT22;47726;52.766;6.606;2023-05-07T12:43:28;21.50;99.90
61807;DHT22;47726;52.766;6.606;2023-05-07T12:45:56;21.60;99.90
61807;DHT22;47726;52.766;6.606;2023-05-07T12:48:23;21.50;99.90
61807;DHT22;47726;52.766;6.606;2023-05-07T12:50:52;21.50;99.90
61807;DHT22;47726;52.766;6.606;2023-05-07T12:53:21;21.40;99.90
61807;DHT22;47726;52.766;6.606;2023-05-07T12:55:54;21.30;99.90
61807;DHT22;47726;52.766;6.606;2023-05-07T12:58:20;21.30;99.90
61807;DHT22;47726;52.766;6.606;2023-05-07T13:00:50;21.20;99.90
61807;DHT22;47726;52.766;6.606;2023-05-07T13:03:27;21.20;99.90
61807;DHT22;47726;52.766;6.606;2023-05-07T13:05:58;21.20;99.90
61807;DHT22;47726;52.766;6.606;2023-05-07T13:08:31;21.20;99.90
61807;DHT22;47726;52.766;6.606;2023-05-07T13:10:58;21.20;99.90
61807;DHT22;47726;52.766;6.606;2023-05-07T13:13:25;21.20;99.90
61807;DHT22;47726;52.766;6.606;2023-05-07T13:15:51;21.20;99.90
61807;DHT22;47726;52.766;6.606;2023-05-07T13:18:17;21.20;99.90
61807;DHT22;47726;52.766;6.606;2023-05-07T13:20:42;21.20;99.90
61807;DHT22;47726;52.766;6.606;2023-05-07T13:23:08;21.30;99.90
61807;DHT22;47726;52.766;6.606;2023-05-07T13:25:34;21.20;99.90
61807;DHT22;47726;52.766;6.606;2023-05-07T13:27:59;21.20;99.90
61807;DHT22;47726;52.766;6.606;2023-05-07T13:30:25;21.20;99.90
61807;DHT22;47726;52.766;6.606;2023-05-07T13:32:53;21.20;99.90
61807;DHT22;47726;52.766;6.606;2023-05-07T13:35:19;21.10;99.90
61807;DHT22;47726;52.766;6.606;2023-05-07T13:37:44;21.10;99.90
61807;DHT22;47726;52.766;6.606;2023-05-07T13:40:10;21.00;99.90
61807;DHT22;47726;52.766;6.606;2023-05-07T13:42:36;21.00;99.90
61807;DHT22;47726;52.766;6.606;2023-05-07T13:45:01;21.00;99.90
61807;DHT22;47726;52.766;6.606;2023-05-07T13:47:30;21.00;99.90
61807;DHT22;47726;52.766;6.606;2023-05-07T13:49:56;20.90;99.90
61807;DHT22;47726;52.766;6.606;2023-05-07T13:52:22;20.80;99.90
61807;DHT22;47726;52.766;6.606;2023-05-07T13:54:47;20.80;99.90
61807;DHT22;47726;52.766;6.606;2023-05-07T13:57:13;20.70;99.90
61807;DHT22;47726;52.766;6.606;2023-05-07T13:59:38;20.70;99.90
61807;DHT22;47726;52.766;6.606;2023-05-07T14:02:04;20.70;99.90
61807;DHT22;47726;52.766;6.606;2023-05-07T14:04:30;20.60;99.90
61807;DHT22;47726;52.766;6.606;2023-05-07T14:06:56;20.60;99.90
61807;DHT22;47726;52.766;6.606;2023-05-07T14:09:21;20.50;99.90
61807;DHT22;47726;52.766;6.606;2023-05-07T14:11:47;20.50;99.90
61807;DHT22;47726;52.766;6.606;2023-05-07T14:14:17;20.40;99.90
61807;DHT22;47726;52.766;6.606;2023-05-07T14:16:42;20.40;99.90
61807;DHT22;47726;52.766;6.606;2023-05-07T14:19:08;20.30;99.90
61807;DHT22;47726;52.766;6.606;2023-05-07T14:21:33;20.30;99.90
61807;DHT22;47726;52.766;6.606;2023-05-07T14:23:59;20.20;99.90
61807;DHT22;47726;52.766;6.606;2023-05-07T14:26:25;20.20;99.90
61807;DHT22;47726;52.766;6.606;2023-05-07T14:28:52;20.20;99.90
61807;DHT22;47726;52.766;6.606;2023-05-07T14:31:20;20.10;99.90
61807;DHT22;47726;52.766;6.606;2023-05-07T14:33:46;20.10;99.90
61807;DHT22;47726;52.766;6.606;2023-05-07T14:36:12;20.10;99.90
61807;DHT22;47726;52.766;6.606;2023-05-07T14:38:37;20.00;99.90
61807;DHT22;47726;52.766;6.606;2023-05-07T14:41:03;20.00;99.90
61807;DHT22;47726;52.766;6.606;2023-05-07T14:43:29;20.00;99.90
61807;DHT22;47726;52.766;6.606;2023-05-07T14:45:55;20.00;99.90
61807;DHT22;47726;52.766;6.606;2023-05-07T14:48:20;19.90;99.90
61807;DHT22;47726;52.766;6.606;2023-05-07T14:50:49;20.00;99.90
61807;DHT22;47726;52.766;6.606;2023-05-07T14:53:15;19.90;99.90
61807;DHT22;47726;52.766;6.606;2023-05-07T14:55:40;19.90;99.90
61807;DHT22;47726;52.766;6.606;2023-05-07T14:58:06;19.90;99.90
61807;DHT22;47726;52.766;6.606;2023-05-07T15:00:32;20.00;99.90
61807;DHT22;47726;52.766;6.606;2023-05-07T15:03:07;19.90;99.90
61807;DHT22;47726;52.766;6.606;2023-05-07T15:05:33;19.90;99.90
61807;DHT22;47726;52.766;6.606;2023-05-07T15:07:58;19.90;99.90
61807;DHT22;47726;52.766;6.606;2023-05-07T15:10:24;19.90;99.90
61807;DHT22;47726;52.766;6.606;2023-05-07T15:12:50;19.90;99.90
61807;DHT22;47726;52.766;6.606;2023-05-07T15:15:16;19.80;99.90
61807;DHT22;47726;52.766;6.606;2023-05-07T15:17:41;19.80;99.90
61807;DHT22;47726;52.766;6.606;2023-05-07T15:20:07;19.80;99.90
61807;DHT22;47726;52.766;6.606;2023-05-07T15:22:33;19.80;99.90
61807;DHT22;47726;52.766;6.606;2023-05-07T15:24:59;19.70;99.90
61807;DHT22;47726;52.766;6.606;2023-05-07T15:27:25;19.70;99.90
61807;DHT22;47726;52.766;6.606;2023-05-07T15:29:51;19.70;99.90
61807;DHT22;47726;52.766;6.606;2023-05-07T15:32:16;19.60;99.90
61807;DHT22;47726;52.766;6.606;2023-05-07T15:34:42;19.60;99.90
61807;DHT22;47726;52.766;6.606;2023-05-07T15:37:07;19.60;99.90
61807;DHT22;47726;52.766;6.606;2023-05-07T15:39:33;19.50;99.90
61807;DHT22;47726;52.766;6.606;2023-05-07T15:41:58;19.50;99.90